createdAt,value
2019-04-07T00:00:10.588Z,0.00
2019-04-07T00:01:10.521Z,0.00
2019-04-07T00:02:10.518Z,0.00
2019-04-07T00:03:10.690Z,0.00
2019-04-07T00:04:10.887Z,0.00
2019-04-07T00:05:14.178Z,0.00
2019-04-07T00:06:10.924Z,0.00
2019-04-07T00:07:10.445Z,0.00
2019-04-07T00:08:10.452Z,0.00
2019-04-07T00:09:10.825Z,0.00
2019-04-07T00:10:11.057Z,0.00
2019-04-07T00:11:10.639Z,0.00
2019-04-07T00:12:11.084Z,0.00
2019-04-07T00:13:10.696Z,0.00
2019-04-07T00:14:11.071Z,0.00
2019-04-07T00:15:10.461Z,0.00
2019-04-07T00:16:10.350Z,0.00
2019-04-07T00:17:10.544Z,0.00
2019-04-07T00:18:10.401Z,0.00
2019-04-07T00:19:10.335Z,0.00
2019-04-07T00:20:10.297Z,0.00
2019-04-07T00:21:10.305Z,0.00
2019-04-07T00:22:10.301Z,0.00
2019-04-07T00:23:10.686Z,0.00
2019-04-07T00:24:10.308Z,0.00
2019-04-07T00:25:10.577Z,0.00
2019-04-07T00:26:10.252Z,0.00
2019-04-07T00:27:10.258Z,0.00
2019-04-07T00:28:10.222Z,0.00
2019-04-07T00:29:10.236Z,0.00
2019-04-07T00:30:10.201Z,0.00
2019-04-07T00:31:10.191Z,0.00
2019-04-07T00:32:10.175Z,0.00
2019-04-07T00:33:10.171Z,0.00
2019-04-07T00:34:10.796Z,0.00
2019-04-07T00:35:21.588Z,0.00
2019-04-07T00:36:11.200Z,0.00
2019-04-07T00:37:10.648Z,0.00
2019-04-07T00:38:10.122Z,0.00
2019-04-07T00:39:10.536Z,0.00
2019-04-07T00:40:10.108Z,0.00
2019-04-07T00:41:10.082Z,0.00
2019-04-07T00:42:10.479Z,0.00
2019-04-07T00:43:10.090Z,0.00
2019-04-07T00:44:10.074Z,0.00
2019-04-07T00:45:10.060Z,0.00
2019-04-07T00:46:10.027Z,0.00
2019-04-07T00:47:10.571Z,0.00
2019-04-07T00:48:10.554Z,0.00
2019-04-07T00:49:10.438Z,0.00
2019-04-07T00:50:09.978Z,0.00
2019-04-07T00:51:10.225Z,0.00
2019-04-07T00:52:09.993Z,0.00
2019-04-07T00:53:09.960Z,0.00
2019-04-07T00:54:09.993Z,0.00
2019-04-07T00:55:09.994Z,0.00
2019-04-07T00:56:10.336Z,0.00
2019-04-07T00:57:09.894Z,0.00
2019-04-07T00:58:09.966Z,0.00
2019-04-07T00:59:09.992Z,0.00
2019-04-07T01:00:10.462Z,0.00
2019-04-07T01:01:09.868Z,0.00
2019-04-07T01:02:10.590Z,0.00
2019-04-07T01:03:10.608Z,0.00
2019-04-07T01:04:09.959Z,0.00
2019-04-07T01:05:10.465Z,0.00
2019-04-07T01:06:09.908Z,0.00
2019-04-07T01:07:10.251Z,0.00
2019-04-07T01:08:09.778Z,0.00
2019-04-07T01:09:09.819Z,0.00
2019-04-07T01:10:09.769Z,0.00
2019-04-07T01:11:09.749Z,0.00
2019-04-07T01:12:10.281Z,0.00
2019-04-07T01:13:09.730Z,0.00
2019-04-07T01:14:10.306Z,0.00
2019-04-07T01:15:09.923Z,0.00
2019-04-07T01:16:09.810Z,0.00
2019-04-07T01:17:09.697Z,0.00
2019-04-07T01:18:09.978Z,0.00
2019-04-07T01:19:09.996Z,0.00
2019-04-07T01:20:09.682Z,0.00
2019-04-07T01:21:09.645Z,0.00
2019-04-07T01:22:09.980Z,0.00
2019-04-07T01:23:09.630Z,0.00
2019-04-07T01:24:09.852Z,0.00
2019-04-07T01:25:10.411Z,0.00
2019-04-07T01:26:09.751Z,0.00
2019-04-07T01:27:09.590Z,0.00
2019-04-07T01:28:09.808Z,0.00
2019-04-07T01:29:10.180Z,0.00
2019-04-07T01:30:09.701Z,0.00
2019-04-07T01:31:09.696Z,0.00
2019-04-07T01:32:10.201Z,0.00
2019-04-07T01:33:09.571Z,0.00
2019-04-07T01:34:09.585Z,0.00
2019-04-07T01:35:10.086Z,0.00
2019-04-07T01:36:09.533Z,0.00
2019-04-07T01:37:09.906Z,0.00
2019-04-07T01:38:09.469Z,0.00
2019-04-07T01:39:09.485Z,0.00
2019-04-07T01:40:09.451Z,0.00
2019-04-07T01:41:09.824Z,0.00
2019-04-07T01:42:09.440Z,0.00
2019-04-07T01:43:09.396Z,0.00
2019-04-07T01:44:10.148Z,0.00
2019-04-07T01:45:09.391Z,0.00
2019-04-07T01:46:09.855Z,0.00
2019-04-07T01:47:09.379Z,0.00
2019-04-07T01:48:09.352Z,0.00
2019-04-07T01:49:10.842Z,0.00
2019-04-07T01:50:09.377Z,0.00
2019-04-07T01:51:09.331Z,0.00
2019-04-07T01:52:09.318Z,0.00
2019-04-07T01:53:10.012Z,0.00
2019-04-07T01:54:10.111Z,0.00
2019-04-07T01:55:09.298Z,0.00
2019-04-07T01:56:09.276Z,0.00
2019-04-07T01:57:09.293Z,0.00
2019-04-07T01:58:09.846Z,0.00
2019-04-07T01:59:10.580Z,0.00
2019-04-07T02:00:09.531Z,0.00
2019-04-07T02:01:09.213Z,0.00
2019-04-07T02:02:09.335Z,0.00
2019-04-07T02:03:09.970Z,0.00
2019-04-07T02:04:09.356Z,0.00
2019-04-07T02:05:09.702Z,0.00
2019-04-07T02:06:09.504Z,0.00
2019-04-07T02:07:09.162Z,0.00
2019-04-07T02:08:09.413Z,0.00
2019-04-07T02:09:09.467Z,0.00
2019-04-07T02:10:09.698Z,0.00
2019-04-07T02:11:09.102Z,0.00
2019-04-07T02:12:09.466Z,0.00
2019-04-07T02:13:09.095Z,0.00
2019-04-07T02:14:09.093Z,0.00
2019-04-07T02:15:09.722Z,0.00
2019-04-07T02:16:09.191Z,0.00
2019-04-07T02:17:09.742Z,0.00
2019-04-07T02:18:09.037Z,0.00
2019-04-07T02:19:09.586Z,0.00
2019-04-07T02:20:09.059Z,0.00
2019-04-07T02:21:09.611Z,0.00
2019-04-07T02:22:08.988Z,0.00
2019-04-07T02:23:09.558Z,0.00
2019-04-07T02:24:09.117Z,0.00
2019-04-07T02:25:09.732Z,0.00
2019-04-07T02:26:08.954Z,0.00
2019-04-07T02:27:08.935Z,0.00
2019-04-07T02:28:08.929Z,0.00
2019-04-07T02:29:09.183Z,0.00
2019-04-07T02:30:09.996Z,0.00
2019-04-07T02:31:09.664Z,0.00
2019-04-07T02:32:09.747Z,0.00
2019-04-07T02:33:08.888Z,0.00
2019-04-07T02:34:08.878Z,0.00
2019-04-07T02:35:08.895Z,0.00
2019-04-07T02:36:17.926Z,0.00
2019-04-07T02:37:09.959Z,0.00
2019-04-07T02:38:08.805Z,0.00
2019-04-07T02:39:09.222Z,0.00
2019-04-07T02:40:09.565Z,0.00
2019-04-07T02:41:09.079Z,0.00
2019-04-07T02:42:08.864Z,0.00
2019-04-07T02:43:08.776Z,0.00
2019-04-07T02:44:09.311Z,0.00
2019-04-07T02:45:09.116Z,0.00
2019-04-07T02:46:09.616Z,0.00
2019-04-07T02:47:09.768Z,0.00
2019-04-07T02:48:08.709Z,0.00
2019-04-07T02:49:08.710Z,0.00
2019-04-07T02:50:08.876Z,0.00
2019-04-07T02:51:09.447Z,0.00
2019-04-07T02:52:09.123Z,0.00
2019-04-07T02:53:09.493Z,0.00
2019-04-07T02:54:09.308Z,0.00
2019-04-07T02:55:08.658Z,0.00
2019-04-07T02:56:08.630Z,0.00
2019-04-07T02:57:08.610Z,0.00
2019-04-07T02:58:08.757Z,0.00
2019-04-07T02:59:08.595Z,0.00
2019-04-07T03:00:08.685Z,0.00
2019-04-07T03:01:09.566Z,0.00
2019-04-07T03:02:08.566Z,0.00
2019-04-07T03:03:08.801Z,0.00
2019-04-07T03:04:09.455Z,0.00
2019-04-07T03:05:08.542Z,0.00
2019-04-07T03:06:08.845Z,0.00
2019-04-07T03:07:08.521Z,0.00
2019-04-07T03:08:09.195Z,0.00
2019-04-07T03:09:08.857Z,0.00
2019-04-07T03:10:08.940Z,0.00
2019-04-07T03:11:08.465Z,0.00
2019-04-07T03:12:08.468Z,0.00
2019-04-07T03:13:09.247Z,0.00
2019-04-07T03:14:09.084Z,0.00
2019-04-07T03:15:09.111Z,0.00
2019-04-07T03:16:08.439Z,0.00
2019-04-07T03:17:08.426Z,0.00
2019-04-07T03:18:08.886Z,0.00
2019-04-07T03:19:08.789Z,0.00
2019-04-07T03:20:08.697Z,0.00
2019-04-07T03:21:08.368Z,0.00
2019-04-07T03:22:08.591Z,0.00
2019-04-07T03:23:09.292Z,0.00
2019-04-07T03:24:09.305Z,0.00
2019-04-07T03:25:08.350Z,0.00
2019-04-07T03:26:08.308Z,0.00
2019-04-07T03:27:08.282Z,0.00
2019-04-07T03:28:08.764Z,0.00
2019-04-07T03:29:08.557Z,0.00
2019-04-07T03:30:09.326Z,0.00
2019-04-07T03:31:09.659Z,0.00
2019-04-07T03:32:10.325Z,0.00
2019-04-07T03:33:11.182Z,0.00
2019-04-07T03:34:11.596Z,0.00
2019-04-07T03:35:09.672Z,0.00
2019-04-07T03:36:11.501Z,0.00
2019-04-07T03:37:22.970Z,0.00
2019-04-07T03:38:09.167Z,0.00
2019-04-07T03:39:08.752Z,0.00
2019-04-07T03:40:08.325Z,0.00
2019-04-07T03:41:08.420Z,0.00
2019-04-07T03:42:08.626Z,0.00
2019-04-07T03:43:09.234Z,0.00
2019-04-07T03:44:08.102Z,0.00
2019-04-07T03:45:08.267Z,0.00
2019-04-07T03:46:08.200Z,0.00
2019-04-07T03:47:08.819Z,0.00
2019-04-07T03:48:08.470Z,0.00
2019-04-07T03:49:08.108Z,0.00
2019-04-07T03:50:08.878Z,0.00
2019-04-07T03:51:09.100Z,0.00
2019-04-07T03:52:08.020Z,0.00
2019-04-07T03:53:08.232Z,0.00
2019-04-07T03:54:08.838Z,0.00
2019-04-07T03:55:08.660Z,0.00
2019-04-07T03:56:08.209Z,0.00
2019-04-07T03:57:08.865Z,0.00
2019-04-07T03:58:08.200Z,0.00
2019-04-07T03:59:07.929Z,0.00
2019-04-07T04:00:08.504Z,0.00
2019-04-07T04:01:08.186Z,0.00
2019-04-07T04:02:08.054Z,0.00
2019-04-07T04:03:08.722Z,0.00
2019-04-07T04:04:07.872Z,0.00
2019-04-07T04:05:07.906Z,0.00
2019-04-07T04:06:09.001Z,0.00
2019-04-07T04:07:20.229Z,0.00
2019-04-07T04:08:09.448Z,0.00
2019-04-07T04:09:08.274Z,0.00
2019-04-07T04:10:08.429Z,0.00
2019-04-07T04:11:07.817Z,0.00
2019-04-07T04:12:08.498Z,0.00
2019-04-07T04:13:07.778Z,0.00
2019-04-07T04:14:08.009Z,0.00
2019-04-07T04:15:08.834Z,0.00
2019-04-07T04:16:08.016Z,0.00
2019-04-07T04:17:08.245Z,0.00
2019-04-07T04:18:07.726Z,0.00
2019-04-07T04:19:08.266Z,0.00
2019-04-07T04:20:08.364Z,0.00
2019-04-07T04:21:07.686Z,4.00
2019-04-07T04:22:07.690Z,0.00
2019-04-07T04:23:07.850Z,0.00
2019-04-07T04:24:08.308Z,4.00
2019-04-07T04:25:08.662Z,0.00
2019-04-07T04:26:08.303Z,4.00
2019-04-07T04:27:08.583Z,4.00
2019-04-07T04:28:07.878Z,8.00
2019-04-07T04:29:08.317Z,8.00
2019-04-07T04:30:07.618Z,4.00
2019-04-07T04:31:07.618Z,8.00
2019-04-07T04:32:07.697Z,8.00
2019-04-07T04:33:08.006Z,12.00
2019-04-07T04:34:07.552Z,16.00
2019-04-07T04:35:08.400Z,16.00
2019-04-07T04:36:08.082Z,20.00
2019-04-07T04:37:08.071Z,20.00
2019-04-07T04:38:08.033Z,24.00
2019-04-07T04:39:08.256Z,32.00
2019-04-07T04:40:07.587Z,36.00
2019-04-07T04:41:07.468Z,44.00
2019-04-07T04:42:08.384Z,52.00
2019-04-07T04:43:07.468Z,56.00
2019-04-07T04:44:07.462Z,68.00
2019-04-07T04:45:08.285Z,76.00
2019-04-07T04:46:09.972Z,88.00
2019-04-07T04:47:08.080Z,100.00
2019-04-07T04:48:07.404Z,120.00
2019-04-07T04:49:07.713Z,132.00
2019-04-07T04:50:08.141Z,152.00
2019-04-07T04:51:07.418Z,168.00
2019-04-07T04:52:07.344Z,184.00
2019-04-07T04:53:09.241Z,208.00
2019-04-07T04:54:08.253Z,228.00
2019-04-07T04:55:07.855Z,252.00
2019-04-07T04:56:07.646Z,276.00
2019-04-07T04:57:09.176Z,304.00
2019-04-07T04:58:07.347Z,332.00
2019-04-07T04:59:07.535Z,364.00
2019-04-07T05:00:07.403Z,396.00
2019-04-07T05:01:07.273Z,428.00
2019-04-07T05:02:07.790Z,468.00
2019-04-07T05:03:07.265Z,508.00
2019-04-07T05:04:07.466Z,552.00
2019-04-07T05:05:09.228Z,600.00
2019-04-07T05:06:07.805Z,648.00
2019-04-07T05:07:07.551Z,696.00
2019-04-07T05:08:07.191Z,748.00
2019-04-07T05:09:07.171Z,800.00
2019-04-07T05:10:08.004Z,860.00
2019-04-07T05:11:07.844Z,920.00
2019-04-07T05:12:07.131Z,980.00
2019-04-07T05:13:07.581Z,1032.00
2019-04-07T05:14:07.189Z,1080.00
2019-04-07T05:15:07.091Z,1120.00
2019-04-07T05:16:07.156Z,1168.00
2019-04-07T05:17:07.397Z,1228.00
2019-04-07T05:18:07.065Z,1288.00
2019-04-07T05:19:07.044Z,1356.00
2019-04-07T05:20:07.034Z,1436.00
2019-04-07T05:21:07.045Z,1524.00
2019-04-07T05:22:07.150Z,1616.00
2019-04-07T05:23:07.715Z,1732.00
2019-04-07T05:24:06.983Z,1864.00
2019-04-07T05:25:07.109Z,2012.00
2019-04-07T05:26:07.050Z,2168.00
2019-04-07T05:27:07.403Z,2304.00
2019-04-07T05:28:06.943Z,2448.00
2019-04-07T05:29:06.955Z,2628.00
2019-04-07T05:30:07.687Z,2800.00
2019-04-07T05:31:07.372Z,3008.00
2019-04-07T05:32:06.972Z,3092.00
2019-04-07T05:33:06.891Z,3184.00
2019-04-07T05:34:07.396Z,3424.00
2019-04-07T05:35:07.703Z,3596.00
2019-04-07T05:36:06.989Z,3732.00
2019-04-07T05:37:07.477Z,3952.00
2019-04-07T05:38:08.247Z,4356.00
2019-04-07T05:39:07.440Z,4592.00
2019-04-07T05:40:06.828Z,4764.00
2019-04-07T05:41:07.559Z,4996.00
2019-04-07T05:42:07.041Z,5216.00
2019-04-07T05:43:07.188Z,5496.00
2019-04-07T05:44:06.775Z,5748.00
2019-04-07T05:45:06.770Z,5924.00
2019-04-07T05:46:08.014Z,6100.00
2019-04-07T05:47:07.122Z,6148.00
2019-04-07T05:48:06.755Z,6376.00
2019-04-07T05:49:06.722Z,7000.00
2019-04-07T05:50:06.730Z,7664.00
2019-04-07T05:51:07.244Z,7896.00
2019-04-07T05:52:06.814Z,8152.00
2019-04-07T05:53:11.000Z,8676.00
2019-04-07T05:54:08.109Z,8896.00
2019-04-07T05:55:06.652Z,9824.00
2019-04-07T05:56:06.661Z,10688.00
2019-04-07T05:57:06.627Z,11776.00
2019-04-07T05:58:08.341Z,12192.00
2019-04-07T05:59:09.824Z,12448.00
2019-04-07T06:00:07.596Z,12768.00
2019-04-07T06:01:06.608Z,13152.00
2019-04-07T06:02:06.885Z,13472.00
2019-04-07T06:03:08.484Z,14240.00
2019-04-07T06:04:06.679Z,14912.00
2019-04-07T06:05:06.660Z,15200.00
2019-04-07T06:06:06.561Z,15776.00
2019-04-07T06:07:07.053Z,15168.00
2019-04-07T06:08:23.680Z,15072.00
2019-04-07T06:09:08.014Z,15968.00
2019-04-07T06:10:06.511Z,17984.00
2019-04-07T06:11:06.534Z,19072.00
2019-04-07T06:12:09.637Z,19296.00
2019-04-07T06:13:06.465Z,20512.00
2019-04-07T06:14:07.285Z,21120.00
2019-04-07T06:15:06.427Z,21824.00
2019-04-07T06:16:06.450Z,21536.00
2019-04-07T06:17:06.535Z,21696.00
2019-04-07T06:18:06.408Z,22272.00
2019-04-07T06:19:08.132Z,22112.00
2019-04-07T06:20:06.831Z,21312.00
2019-04-07T06:21:07.649Z,20480.00
2019-04-07T06:22:07.641Z,19360.00
2019-04-07T06:23:06.381Z,20000.00
2019-04-07T06:24:06.370Z,21184.00
2019-04-07T06:25:07.078Z,22464.00
2019-04-07T06:26:09.978Z,23264.00
2019-04-07T06:27:06.313Z,25184.00
2019-04-07T06:28:07.107Z,28000.00
2019-04-07T06:29:06.951Z,29856.00
2019-04-07T06:30:06.266Z,31584.00
2019-04-07T06:31:06.616Z,32832.00
2019-04-07T06:32:09.161Z,33696.00
2019-04-07T06:33:07.351Z,33280.00
2019-04-07T06:34:08.178Z,34368.00
2019-04-07T06:35:06.220Z,35232.00
2019-04-07T06:36:06.226Z,36320.00
2019-04-07T06:37:06.858Z,37600.00
2019-04-07T06:38:07.832Z,38272.00
2019-04-07T06:39:06.211Z,38400.00
2019-04-07T06:40:06.206Z,40608.00
2019-04-07T06:41:06.230Z,40736.00
2019-04-07T06:42:06.149Z,40928.00
2019-04-07T06:43:06.648Z,40608.00
2019-04-07T06:44:13.058Z,41472.00
2019-04-07T06:45:07.125Z,41728.00
2019-04-07T06:46:06.154Z,42752.00
2019-04-07T06:47:06.533Z,46400.00
2019-04-07T06:48:08.231Z,48544.00
2019-04-07T06:49:07.021Z,50176.00
2019-04-07T06:50:06.065Z,45920.00
2019-04-07T06:51:06.110Z,47168.00
2019-04-07T06:52:06.044Z,50144.00
2019-04-07T06:53:10.687Z,51104.00
2019-04-07T06:54:07.013Z,52064.00
2019-04-07T06:55:06.697Z,53280.00
2019-04-07T06:56:06.076Z,53632.00
2019-04-07T06:57:06.441Z,55008.00
2019-04-07T06:58:08.260Z,57120.00
2019-04-07T06:59:05.959Z,58528.00
2019-04-07T07:00:08.223Z,58368.00
2019-04-07T07:01:06.747Z,59264.00
2019-04-07T07:02:07.170Z,59456.00
2019-04-07T07:03:06.164Z,60384.00
2019-04-07T07:04:09.368Z,62592.00
2019-04-07T07:05:06.916Z,63200.00
2019-04-07T07:06:05.933Z,61856.00
2019-04-07T07:07:06.525Z,62240.00
2019-04-07T07:08:06.270Z,61152.00
2019-04-07T07:09:06.247Z,61248.00
2019-04-07T07:10:06.531Z,63264.00
2019-04-07T07:11:07.918Z,64832.00
2019-04-07T07:12:06.161Z,65216.00
2019-04-07T07:13:11.001Z,67136.00
2019-04-07T07:14:07.809Z,66176.00
2019-04-07T07:15:05.815Z,66528.00
2019-04-07T07:16:09.595Z,66656.00
2019-04-07T07:17:07.496Z,67072.00
2019-04-07T07:18:05.770Z,69152.00
2019-04-07T07:19:06.399Z,68672.00
2019-04-07T07:20:06.663Z,65440.00
2019-04-07T07:21:05.789Z,66752.00
2019-04-07T07:22:10.069Z,67872.00
2019-04-07T07:23:07.474Z,68256.00
2019-04-07T07:24:05.906Z,70240.00
2019-04-07T07:25:05.717Z,71072.00
2019-04-07T07:26:06.061Z,71648.00
2019-04-07T07:27:08.520Z,71392.00
2019-04-07T07:28:07.593Z,71776.00
2019-04-07T07:29:06.891Z,70912.00
2019-04-07T07:30:05.691Z,70720.00
2019-04-07T07:31:05.728Z,70560.00
2019-04-07T07:32:06.412Z,70656.00
2019-04-07T07:33:08.840Z,72640.00
2019-04-07T07:34:09.306Z,72768.00
2019-04-07T07:35:06.291Z,72224.00
2019-04-07T07:36:05.594Z,72544.00
2019-04-07T07:37:05.642Z,72736.00
2019-04-07T07:38:05.982Z,73056.00
2019-04-07T07:39:10.199Z,72544.00
2019-04-07T07:40:07.896Z,71840.00
2019-04-07T07:41:06.289Z,73376.00
2019-04-07T07:42:05.597Z,74368.00
2019-04-07T07:43:05.595Z,73888.00
2019-04-07T07:44:08.451Z,74400.00
2019-04-07T07:45:08.097Z,73536.00
2019-04-07T07:46:05.630Z,72768.00
2019-04-07T07:47:05.536Z,73312.00
2019-04-07T07:48:05.496Z,73728.00
2019-04-07T07:49:06.038Z,72736.00
2019-04-07T07:50:07.742Z,72416.00
2019-04-07T07:51:07.158Z,72032.00
2019-04-07T07:52:06.086Z,72896.00
2019-04-07T07:53:05.799Z,73120.00
2019-04-07T07:54:05.624Z,74272.00
2019-04-07T07:55:05.832Z,75168.00
2019-04-07T07:56:09.629Z,74656.00
2019-04-07T07:57:06.868Z,74816.00
2019-04-07T07:58:05.492Z,74080.00
2019-04-07T07:59:06.120Z,73344.00
2019-04-07T08:00:07.092Z,74624.00
2019-04-07T08:01:05.508Z,76512.00
2019-04-07T08:02:05.399Z,76736.00
2019-04-07T08:03:05.940Z,76576.00
2019-04-07T08:04:06.188Z,77920.00
2019-04-07T08:05:05.347Z,78272.00
2019-04-07T08:06:08.209Z,78304.00
2019-04-07T08:07:05.487Z,77760.00
2019-04-07T08:08:05.829Z,76832.00
2019-04-07T08:09:11.936Z,78432.00
2019-04-07T08:10:06.273Z,77664.00
2019-04-07T08:11:05.559Z,75936.00
2019-04-07T08:12:05.311Z,76000.00
2019-04-07T08:13:07.701Z,74368.00
2019-04-07T08:14:05.294Z,78112.00
2019-04-07T08:15:05.881Z,79328.00
2019-04-07T08:16:05.258Z,78336.00
2019-04-07T08:17:05.248Z,78016.00
2019-04-07T08:18:08.135Z,79616.00
2019-04-07T08:19:09.022Z,79584.00
2019-04-07T08:20:05.679Z,79424.00
2019-04-07T08:21:05.571Z,78880.00
2019-04-07T08:22:07.626Z,78144.00
2019-04-07T08:23:05.372Z,77824.00
2019-04-07T08:24:05.177Z,77760.00
2019-04-07T08:25:05.309Z,78816.00
2019-04-07T08:26:05.115Z,78368.00
2019-04-07T08:27:05.214Z,77088.00
2019-04-07T08:28:05.118Z,78656.00
2019-04-07T08:29:06.827Z,78272.00
2019-04-07T08:30:09.943Z,77600.00
2019-04-07T08:31:06.554Z,76768.00
2019-04-07T08:32:05.423Z,76864.00
2019-04-07T08:33:05.078Z,76480.00
2019-04-07T08:34:05.029Z,77216.00
2019-04-07T08:35:05.747Z,79264.00
2019-04-07T08:36:09.681Z,77952.00
2019-04-07T08:37:06.093Z,78272.00
2019-04-07T08:38:05.695Z,78304.00
2019-04-07T08:39:05.052Z,78400.00
2019-04-07T08:40:07.220Z,77664.00
2019-04-07T08:41:08.190Z,77216.00
2019-04-07T08:42:09.769Z,77280.00
2019-04-07T08:43:06.119Z,78336.00
2019-04-07T08:44:04.958Z,77920.00
2019-04-07T08:45:05.654Z,78176.00
2019-04-07T08:46:05.995Z,76992.00
2019-04-07T08:47:04.967Z,76544.00
2019-04-07T08:48:05.162Z,73440.00
2019-04-07T08:49:04.896Z,69888.00
2019-04-07T08:50:04.893Z,70272.00
2019-04-07T08:51:04.869Z,73376.00
2019-04-07T08:52:09.079Z,76864.00
2019-04-07T08:53:05.862Z,79936.00
2019-04-07T08:54:05.830Z,80256.00
2019-04-07T08:55:05.040Z,78720.00
2019-04-07T08:56:06.841Z,77056.00
2019-04-07T08:57:05.686Z,77664.00
2019-04-07T08:58:05.871Z,76800.00
2019-04-07T08:59:07.891Z,75520.00
2019-04-07T09:00:06.243Z,75200.00
2019-04-07T09:01:05.343Z,76352.00
2019-04-07T09:02:05.449Z,76000.00
2019-04-07T09:03:11.095Z,77344.00
2019-04-07T09:04:06.626Z,79136.00
2019-04-07T09:05:05.370Z,78976.00
2019-04-07T09:06:04.830Z,79264.00
2019-04-07T09:07:05.196Z,78624.00
2019-04-07T09:08:06.041Z,79328.00
2019-04-07T09:09:07.149Z,78656.00
2019-04-07T09:10:04.710Z,77184.00
2019-04-07T09:11:04.728Z,74496.00
2019-04-07T09:12:04.865Z,72224.00
2019-04-07T09:13:07.749Z,72256.00
2019-04-07T09:14:06.377Z,73664.00
2019-04-07T09:15:05.294Z,74688.00
2019-04-07T09:16:04.739Z,75168.00
2019-04-07T09:17:04.740Z,75776.00
2019-04-07T09:18:04.621Z,74656.00
2019-04-07T09:19:06.911Z,73696.00
2019-04-07T09:20:08.496Z,73536.00
2019-04-07T09:21:05.586Z,75328.00
2019-04-07T09:22:04.617Z,76768.00
2019-04-07T09:23:06.630Z,76416.00
2019-04-07T09:24:05.033Z,75296.00
2019-04-07T09:25:08.474Z,73568.00
2019-04-07T09:26:05.625Z,73664.00
2019-04-07T09:27:04.544Z,73184.00
2019-04-07T09:28:04.579Z,72928.00
2019-04-07T09:29:05.133Z,72672.00
2019-04-07T09:30:07.637Z,72096.00
2019-04-07T09:31:04.601Z,71968.00
2019-04-07T09:32:04.495Z,70528.00
2019-04-07T09:33:04.454Z,69728.00
2019-04-07T09:34:04.443Z,70176.00
2019-04-07T09:35:07.050Z,70464.00
2019-04-07T09:36:04.440Z,68992.00
2019-04-07T09:37:04.506Z,66048.00
2019-04-07T09:38:04.395Z,64736.00
2019-04-07T09:39:04.408Z,65504.00
2019-04-07T09:40:05.571Z,67232.00
2019-04-07T09:41:04.389Z,65888.00
2019-04-07T09:42:04.412Z,63520.00
2019-04-07T09:43:05.345Z,63264.00
2019-04-07T09:44:05.210Z,63904.00
2019-04-07T09:45:07.447Z,64960.00
2019-04-07T09:46:09.318Z,65792.00
2019-04-07T09:47:05.316Z,64256.00
2019-04-07T09:48:04.344Z,61920.00
2019-04-07T09:49:04.593Z,62880.00
2019-04-07T09:50:04.880Z,62880.00
2019-04-07T09:51:07.133Z,64064.00
2019-04-07T09:52:04.300Z,66592.00
2019-04-07T09:53:04.249Z,66912.00
2019-04-07T09:54:04.241Z,65344.00
2019-04-07T09:55:04.503Z,64128.00
2019-04-07T09:56:04.884Z,63872.00
2019-04-07T09:57:06.982Z,63552.00
2019-04-07T09:58:07.964Z,61632.00
2019-04-07T09:59:05.162Z,62048.00
2019-04-07T10:00:06.711Z,62176.00
2019-04-07T10:01:06.164Z,61120.00
2019-04-07T10:02:06.281Z,59936.00
2019-04-07T10:03:06.757Z,57920.00
2019-04-07T10:04:07.114Z,58208.00
2019-04-07T10:05:04.108Z,58912.00
2019-04-07T10:06:04.163Z,60416.00
2019-04-07T10:07:04.747Z,60352.00
2019-04-07T10:08:04.384Z,60192.00
2019-04-07T10:09:04.122Z,58496.00
2019-04-07T10:10:10.793Z,57472.00
2019-04-07T10:11:05.346Z,58048.00
2019-04-07T10:12:04.820Z,59584.00
2019-04-07T10:13:04.071Z,57568.00
2019-04-07T10:14:04.449Z,56960.00
2019-04-07T10:15:04.028Z,56288.00
2019-04-07T10:16:07.699Z,57408.00
2019-04-07T10:17:04.015Z,55168.00
2019-04-07T10:18:04.161Z,53824.00
2019-04-07T10:19:03.980Z,53184.00
2019-04-07T10:20:04.976Z,53312.00
2019-04-07T10:21:03.958Z,53056.00
2019-04-07T10:22:03.970Z,53216.00
2019-04-07T10:23:04.045Z,52160.00
2019-04-07T10:24:03.960Z,50752.00
2019-04-07T10:25:04.424Z,51520.00
2019-04-07T10:26:04.136Z,53088.00
2019-04-07T10:27:03.908Z,50432.00
2019-04-07T10:28:07.210Z,49056.00
2019-04-07T10:29:04.873Z,51168.00
2019-04-07T10:30:04.595Z,48448.00
2019-04-07T10:31:04.725Z,46016.00
2019-04-07T10:32:04.510Z,44352.00
2019-04-07T10:33:03.945Z,45440.00
2019-04-07T10:34:03.869Z,45280.00
2019-04-07T10:35:03.810Z,44192.00
2019-04-07T10:36:03.827Z,42784.00
2019-04-07T10:37:04.957Z,45184.00
2019-04-07T10:38:03.998Z,43008.00
2019-04-07T10:39:04.264Z,43296.00
2019-04-07T10:40:08.060Z,43936.00
2019-04-07T10:41:05.602Z,43744.00
2019-04-07T10:42:04.706Z,45216.00
2019-04-07T10:43:04.150Z,38592.00
2019-04-07T10:44:03.873Z,30816.00
2019-04-07T10:45:03.754Z,34368.00
2019-04-07T10:46:03.722Z,41952.00
2019-04-07T10:47:03.829Z,41280.00
2019-04-07T10:48:03.707Z,40320.00
2019-04-07T10:49:04.407Z,40032.00
2019-04-07T10:50:07.033Z,38688.00
2019-04-07T10:51:04.397Z,36544.00
2019-04-07T10:52:04.421Z,36960.00
2019-04-07T10:53:08.249Z,36736.00
2019-04-07T10:54:03.788Z,34464.00
2019-04-07T10:55:03.675Z,25632.00
2019-04-07T10:56:03.761Z,19776.00
2019-04-07T10:57:04.292Z,18624.00
2019-04-07T10:58:04.289Z,17952.00
2019-04-07T10:59:04.360Z,17536.00
2019-04-07T11:00:03.569Z,17568.00
2019-04-07T11:01:04.137Z,17504.00
2019-04-07T11:02:03.577Z,17120.00
2019-04-07T11:03:04.765Z,16672.00
2019-04-07T11:04:03.895Z,16288.00
2019-04-07T11:05:03.517Z,15968.00
2019-04-07T11:06:03.934Z,15840.00
2019-04-07T11:07:04.183Z,15616.00
2019-04-07T11:08:03.556Z,15360.00
2019-04-07T11:09:03.653Z,15424.00
2019-04-07T11:10:03.754Z,15456.00
2019-04-07T11:11:03.528Z,15192.00
2019-04-07T11:12:03.462Z,15048.00
2019-04-07T11:13:03.473Z,14988.00
2019-04-07T11:14:03.457Z,14760.00
2019-04-07T11:15:03.438Z,14524.00
2019-04-07T11:16:03.417Z,14716.00
2019-04-07T11:17:03.653Z,14572.00
2019-04-07T11:18:04.113Z,14248.00
2019-04-07T11:19:03.388Z,14196.00
2019-04-07T11:20:03.397Z,14196.00
2019-04-07T11:21:03.460Z,14068.00
2019-04-07T11:22:03.351Z,13948.00
2019-04-07T11:23:03.358Z,14044.00
2019-04-07T11:24:03.992Z,14108.00
2019-04-07T11:25:03.594Z,14384.00
2019-04-07T11:26:03.607Z,14404.00
2019-04-07T11:27:03.296Z,14392.00
2019-04-07T11:28:03.329Z,14624.00
2019-04-07T11:29:03.279Z,14880.00
2019-04-07T11:30:03.860Z,15232.00
2019-04-07T11:31:03.843Z,15712.00
2019-04-07T11:32:03.244Z,16608.00
2019-04-07T11:33:03.567Z,17792.00
2019-04-07T11:34:03.378Z,19072.00
2019-04-07T11:35:03.850Z,21920.00
2019-04-07T11:36:04.007Z,25920.00
2019-04-07T11:37:03.193Z,24608.00
2019-04-07T11:38:03.215Z,20704.00
2019-04-07T11:39:03.164Z,18272.00
2019-04-07T11:40:04.639Z,16288.00
2019-04-07T11:41:03.469Z,15328.00
2019-04-07T11:42:04.774Z,14400.00
2019-04-07T11:43:03.343Z,13672.00
2019-04-07T11:44:03.179Z,13328.00
2019-04-07T11:45:03.267Z,12732.00
2019-04-07T11:46:03.469Z,12332.00
2019-04-07T11:47:03.762Z,12156.00
2019-04-07T11:48:03.455Z,12096.00
2019-04-07T11:49:03.075Z,11880.00
2019-04-07T11:50:03.793Z,11728.00
2019-04-07T11:51:03.310Z,11596.00
2019-04-07T11:52:03.658Z,11584.00
2019-04-07T11:53:03.857Z,11492.00
2019-04-07T11:54:03.229Z,11328.00
2019-04-07T11:55:03.026Z,11316.00
2019-04-07T11:56:06.159Z,11344.00
2019-04-07T11:57:04.458Z,11264.00
2019-04-07T11:58:13.525Z,11104.00
2019-04-07T11:59:06.735Z,10460.00
2019-04-07T12:00:02.967Z,9916.00
2019-04-07T12:01:03.574Z,9820.00
2019-04-07T12:02:03.657Z,9804.00
2019-04-07T12:03:03.135Z,9748.00
2019-04-07T12:04:02.926Z,9728.00
2019-04-07T12:05:03.262Z,9656.00
2019-04-07T12:06:02.891Z,9604.00
2019-04-07T12:07:03.547Z,9568.00
2019-04-07T12:08:02.927Z,9516.00
2019-04-07T12:09:03.309Z,9480.00
2019-04-07T12:10:03.065Z,9416.00
2019-04-07T12:11:05.934Z,9252.00
2019-04-07T12:12:03.626Z,9300.00
2019-04-07T12:13:03.629Z,9244.00
2019-04-07T12:14:02.885Z,9176.00
2019-04-07T12:15:02.816Z,9060.00
2019-04-07T12:16:03.632Z,8956.00
2019-04-07T12:17:06.949Z,9064.00
2019-04-07T12:18:06.536Z,8868.00
2019-04-07T12:19:03.336Z,8788.00
2019-04-07T12:20:03.097Z,8724.00
2019-04-07T12:21:05.270Z,8652.00